Time;durP1;ratioP1;P1;durP2;ratioP2;P2;SDS_P1;SDS_P2;PMS_P1;PMS_P2;Temp;Humidity;BMP_temperature;BMP_pressure;BME280_temperature;BME280_humidity;BME280_pressure;Samples;Min_cycle;Max_cycle;Signal;HPM_P1;HPM_P2
2022/05/13 00:00:12;;;;;;;0.60;0.60;;;22.30;40.00;;;26.02;26.33;101322.28;5093513;28;20074;-17
2022/05/13 00:02:38;;;;;;;0.65;0.50;;;22.30;40.00;;;26.03;26.20;101324.84;5093422;28;20456;-17
2022/05/13 00:05:06;;;;;;;1.10;0.63;;;22.20;40.00;;;26.03;26.36;101321.31;5093396;28;20058;-17
2022/05/13 00:07:32;;;;;;;0.57;0.43;;;22.20;39.90;;;26.07;26.37;101328.13;5093360;28;20055;-17
2022/05/13 00:10:05;;;;;;;0.98;0.68;;;22.20;40.00;;;26.05;26.29;101324.72;5075190;28;20055;-17
2022/05/13 00:12:35;;;;;;;0.60;0.60;;;22.30;40.00;;;26.09;26.42;101330.69;5076476;28;20056;-17
2022/05/13 00:15:03;;;;;;;0.85;0.70;;;22.30;40.00;;;26.06;26.26;101323.72;5093249;28;20105;-17
2022/05/13 00:17:30;;;;;;;0.50;0.50;;;22.30;40.00;;;26.00;26.47;101318.88;5092953;28;20055;-16
2022/05/13 00:19:57;;;;;;;1.42;0.85;;;22.20;40.00;;;26.04;26.26;101320.31;5093100;28;20122;-17
2022/05/13 00:22:25;;;;;;;0.50;0.50;;;22.20;40.00;;;26.01;26.15;101313.38;5093340;28;20096;-17
2022/05/13 00:24:58;;;;;;;1.27;0.52;;;22.20;40.00;;;26.04;26.33;101323.00;5093035;28;20093;-17
2022/05/13 00:27:25;;;;;;;0.80;0.60;;;22.30;40.00;;;25.99;26.29;101315.31;5093431;28;20078;-17
2022/05/13 00:29:51;;;;;;;0.80;0.50;;;22.20;40.00;;;26.06;26.31;101319.25;5093331;28;20132;-17
2022/05/13 00:32:18;;;;;;;0.60;0.60;;;22.20;40.00;;;26.07;26.25;101320.94;5092873;28;20052;-17
2022/05/13 00:34:43;;;;;;;0.80;0.60;;;22.20;40.00;;;26.06;26.29;101321.94;5092797;28;20048;-16
2022/05/13 00:37:10;;;;;;;1.10;0.52;;;22.20;40.00;;;26.06;26.37;101313.88;5092673;28;20058;-17
2022/05/13 00:39:35;;;;;;;1.10;0.80;;;22.20;40.00;;;26.00;26.30;101302.78;5092603;28;20040;-17
2022/05/13 00:42:10;;;;;;;0.50;0.40;;;22.20;40.00;;;26.05;26.30;101312.16;5092708;28;20044;-17
2022/05/13 00:44:36;;;;;;;0.60;0.60;;;22.20;40.00;;;26.01;26.29;101300.00;5092878;28;20052;-17
2022/05/13 00:47:04;;;;;;;0.95;0.50;;;22.20;40.00;;;26.01;26.34;101310.72;5092688;28;20131;-17
2022/05/13 00:49:31;;;;;;;1.13;0.60;;;22.20;40.00;;;26.06;26.37;101310.34;5092607;28;20048;-16
2022/05/13 00:51:59;;;;;;;1.75;0.50;;;22.20;40.00;;;26.05;26.31;101304.13;5074783;28;20128;-17
2022/05/13 00:54:25;;;;;;;0.60;0.60;;;22.20;40.00;;;26.01;26.42;101300.00;5074082;28;20040;-17
2022/05/13 00:56:51;;;;;;;1.20;0.60;;;22.20;40.00;;;26.05;26.44;101301.44;5092537;28;20047;-17
2022/05/13 00:59:21;;;;;;;1.05;0.70;;;22.20;40.00;;;26.01;26.32;101299.13;5092308;28;20487;-17
2022/05/13 01:01:48;;;;;;;0.70;0.65;;;22.20;40.00;;;26.06;26.31;101311.22;5074145;28;20492;-17
2022/05/13 01:04:16;;;;;;;0.60;0.50;;;22.20;40.00;;;26.04;26.32;101307.81;5092592;28;20102;-17
2022/05/13 01:06:54;;;;;;;0.60;0.60;;;22.20;40.00;;;25.96;26.32;101288.78;5092522;28;20080;-17
2022/05/13 01:09:21;;;;;;;1.05;0.82;;;22.20;40.00;;;26.03;26.28;101292.69;5074337;28;20059;-17
2022/05/13 01:11:52;;;;;;;0.60;0.60;;;22.20;40.00;;;25.96;26.34;101288.78;5074399;28;20059;-17
2022/05/13 01:14:22;;;;;;;;;;;22.20;40.00;;;26.12;26.14;101287.59;5092965;28;20050;-17
2022/05/13 01:19:32;;;;;;;0.60;0.57;;;22.20;40.00;;;26.04;26.30;101288.16;5092704;28;20063;-17
2022/05/13 01:22:14;;;;;;;0.40;0.40;;;22.20;40.00;;;25.98;26.39;101283.31;5092115;28;20479;-17
2022/05/13 01:24:41;;;;;;;0.55;0.55;;;22.20;40.00;;;26.00;26.42;101284.88;5092656;28;20365;-17
2022/05/13 01:27:07;;;;;;;1.00;0.70;;;22.20;40.00;;;25.97;26.31;101282.41;5092413;28;20131;-17
2022/05/13 01:29:33;;;;;;;0.63;0.63;;;22.20;40.10;;;25.97;26.32;101281.56;5092441;28;20158;-17
2022/05/13 01:31:58;;;;;;;0.70;0.60;;;22.20;40.00;;;26.01;26.34;101297.31;5092423;28;20418;-17
2022/05/13 01:34:24;;;;;;;0.73;0.60;;;22.20;40.10;;;26.00;26.37;101290.22;5092402;28;20048;-17
2022/05/13 01:36:50;;;;;;;0.50;0.50;;;22.20;40.10;;;25.96;26.27;101283.41;5092179;28;20070;-17
2022/05/13 01:39:16;;;;;;;0.73;0.63;;;22.20;40.10;;;26.00;26.32;101287.56;5092198;28;20044;-17
2022/05/13 01:41:41;;;;;;;1.48;0.60;;;22.20;40.00;;;25.92;26.48;101278.38;5091935;28;20514;-17
2022/05/13 01:44:07;;;;;;;0.57;0.52;;;22.20;40.10;;;25.94;26.31;101287.97;5092114;28;20531;-16
2022/05/13 01:46:33;;;;;;;0.77;0.68;;;22.20;40.00;;;25.96;26.37;101287.91;5092227;28;20040;-17
2022/05/13 01:48:59;;;;;;;0.65;0.65;;;22.20;40.00;;;25.99;26.37;101288.50;5092047;28;20071;-17
2022/05/13 01:51:25;;;;;;;0.60;0.60;;;22.10;40.00;;;25.93;26.37;101274.69;5073529;28;20085;-17
2022/05/13 01:53:52;;;;;;;0.57;0.55;;;22.20;40.10;;;26.00;26.43;101292.06;5091954;28;20403;-17
2022/05/13 01:56:18;;;;;;;0.80;0.65;;;22.20;40.10;;;25.96;26.32;101285.22;5091999;28;20048;-17
2022/05/13 01:58:44;;;;;;;0.70;0.70;;;22.20;40.10;;;25.96;26.35;101283.41;5091959;28;20040;-17
2022/05/13 02:01:09;;;;;;;0.68;0.68;;;22.20;40.10;;;25.93;26.49;101274.69;5091743;28;20480;-17
2022/05/13 02:03:45;;;;;;;0.98;0.68;;;22.10;40.00;;;25.97;26.31;101284.25;5091826;28;20048;-17
2022/05/13 02:06:24;;;;;;;0.95;0.70;;;22.10;40.00;;;25.98;26.44;101288.66;5092143;28;20127;-17
2022/05/13 02:08:52;;;;;;;0.75;0.55;;;22.10;40.00;;;25.98;26.33;101283.31;5095164;28;20159;-17
2022/05/13 02:11:20;;;;;;;0.50;0.50;;;22.10;40.10;;;25.95;26.42;101283.50;5095207;28;20083;-17
2022/05/13 02:13:47;;;;;;;0.95;0.70;;;22.10;40.00;;;25.96;26.29;101286.09;5095115;28;20086;-17
2022/05/13 02:16:13;;;;;;;0.68;0.68;;;22.10;40.10;;;25.92;26.43;101270.34;5095283;28;20438;-17
2022/05/13 02:18:40;;;;;;;0.50;0.50;;;22.10;40.10;;;25.92;26.28;101271.19;5095070;28;20075;-17
2022/05/13 02:21:08;;;;;;;0.40;0.40;;;22.10;40.00;;;25.96;26.22;101270.00;5095454;28;20048;-17
2022/05/13 02:23:34;;;;;;;0.90;0.50;;;22.10;40.10;;;25.98;26.29;101275.25;5095079;28;20400;-17
2022/05/13 02:26:04;;;;;;;0.73;0.60;;;22.10;40.00;;;25.88;26.40;101253.66;5094933;28;20052;-17
2022/05/13 02:28:30;;;;;;;0.80;0.50;;;22.10;40.10;;;25.97;26.41;101260.16;5095273;28;20040;-17
2022/05/13 02:30:56;;;;;;;0.82;0.70;;;22.10;40.00;;;25.96;26.29;101271.81;5095343;28;20040;-16
2022/05/13 02:33:22;;;;;;;0.98;0.60;;;22.10;40.00;;;25.93;26.42;101261.31;5095123;28;20143;-17
2022/05/13 02:35:48;;;;;;;0.65;0.60;;;22.10;40.00;;;25.96;26.25;101264.66;5094834;28;20044;-17
2022/05/13 02:38:15;;;;;;;0.77;0.60;;;22.10;40.10;;;25.89;26.36;101250.84;5093371;28;20051;-17
2022/05/13 02:43:27;;;;;;;0.65;0.65;;;22.20;40.10;;;25.95;26.45;101262.06;5094952;28;20051;-17
2022/05/13 02:45:53;;;;;;;0.82;0.50;;;22.10;40.10;;;25.89;26.40;101241.94;5094942;28;20093;-17
2022/05/13 02:48:19;;;;;;;1.30;0.82;;;22.10;40.10;;;25.86;26.48;101244.84;5094420;28;20051;-18
2022/05/13 02:50:45;;;;;;;0.60;0.60;;;22.10;40.10;;;25.92;26.34;101244.38;5094512;28;20052;-16
2022/05/13 02:53:11;;;;;;;1.75;0.63;;;22.10;40.10;;;25.85;26.36;101230.59;5094456;28;20051;-17
2022/05/13 02:55:37;;;;;;;0.80;0.80;;;22.10;40.10;;;25.89;26.33;101228.53;5094540;28;20044;-16
2022/05/13 02:58:04;;;;;;;1.08;0.73;;;22.10;40.10;;;25.92;26.54;101236.34;5095010;28;20484;-17
2022/05/13 03:00:31;;;;;;;0.60;0.60;;;22.10;40.10;;;25.92;26.27;101233.66;5094234;28;20389;-17
2022/05/13 03:02:57;;;;;;;0.60;0.60;;;22.10;40.10;;;25.89;26.39;101231.22;5094506;28;20056;-17
2022/05/13 03:05:24;;;;;;;0.65;0.50;;;22.10;40.10;;;25.93;26.28;101240.75;5094408;28;20048;-17
2022/05/13 03:07:50;;;;;;;0.80;0.57;;;22.10;40.10;;;25.88;26.31;101230.38;5094247;28;20040;-17
2022/05/13 03:10:17;;;;;;;1.17;0.65;;;22.10;40.10;;;25.94;26.32;101233.56;5094102;28;20101;-17
2022/05/13 03:12:43;;;;;;;0.60;0.60;;;22.10;40.10;;;25.89;26.46;101218.69;5094306;28;20044;-17
2022/05/13 03:15:11;;;;;;;0.50;0.50;;;22.10;40.10;;;25.84;26.34;101214.66;5094252;28;20521;-17
2022/05/13 03:17:39;;;;;;;0.57;0.57;;;22.10;40.10;;;25.87;26.49;101223.31;5093658;28;20056;-17
2022/05/13 03:20:08;;;;;;;0.63;0.63;;;22.10;40.10;;;25.92;26.35;101224.78;5093987;28;20438;-17
2022/05/13 03:22:34;;;;;;;0.80;0.50;;;22.10;40.10;;;25.93;26.38;101227.34;5094338;28;20051;-17
2022/05/13 03:25:00;;;;;;;0.70;0.68;;;22.10;40.10;;;25.89;26.46;101220.50;5093926;28;20059;-17
2022/05/13 03:27:28;;;;;;;0.60;0.60;;;22.10;40.10;;;25.92;26.46;101219.44;5075953;28;20058;-17
2022/05/13 03:29:55;;;;;;;0.70;0.70;;;22.10;40.10;;;25.92;26.38;101222.94;5094102;28;20488;-17
2022/05/13 03:32:20;;;;;;;0.52;0.50;;;22.10;40.10;;;25.87;26.39;101207.22;5093838;28;20048;-17
2022/05/13 03:34:46;;;;;;;0.57;0.57;;;22.10;40.10;;;25.92;26.44;101206.03;5093703;28;20056;-17
2022/05/13 03:37:12;;;;;;;0.60;0.60;;;22.10;40.10;;;25.92;26.46;101209.56;5093987;28;20052;-17
2022/05/13 03:39:37;;;;;;;0.57;0.50;;;22.10;40.10;;;25.92;26.35;101201.53;5093579;28;20060;-17
2022/05/13 03:42:04;;;;;;;0.47;0.47;;;22.10;40.10;;;25.87;26.41;101193.00;5093575;28;20446;-17
2022/05/13 03:44:31;;;;;;;1.02;0.45;;;22.10;40.10;;;25.89;26.49;101199.06;5093570;28;20145;-17
2022/05/13 03:46:57;;;;;;;1.10;0.68;;;22.10;40.10;;;25.88;26.36;101192.03;5093635;28;20054;-17
2022/05/13 03:49:22;;;;;;;1.38;0.85;;;22.10;40.10;;;25.88;26.41;101192.03;5093894;28;20048;-17
2022/05/13 03:51:48;;;;;;;0.70;0.70;;;22.10;40.10;;;25.93;26.33;101197.00;5093833;28;20100;-17
2022/05/13 03:54:14;;;;;;;2.42;0.68;;;22.10;40.10;;;25.92;26.25;101193.47;5093556;28;20044;-17
2022/05/13 03:56:39;;;;;;;1.20;0.80;;;22.10;40.10;;;25.85;26.43;101185.06;5093411;28;20040;-17
2022/05/13 03:59:05;;;;;;;0.63;0.60;;;22.10;40.10;;;25.93;26.44;101180.94;5093918;28;20044;-17
2022/05/13 04:01:31;;;;;;;0.57;0.50;;;22.10;40.10;;;25.92;26.28;101181.94;5093315;28;20040;-17
2022/05/13 04:03:57;;;;;;;1.13;0.75;;;22.10;40.10;;;25.89;26.35;101177.66;5093405;28;20494;-17
2022/05/13 04:09:07;;;;;;;0.68;0.68;;;22.10;40.10;;;25.93;26.47;101180.94;5093619;28;20539;-16
2022/05/13 04:11:37;;;;;;;0.70;0.70;;;22.10;40.00;;;25.87;26.44;101172.41;5093757;28;20054;-17
2022/05/13 04:16:52;;;;;;;0.80;0.63;;;22.10;40.00;;;25.93;26.22;101173.78;5093429;28;20048;-17
2022/05/13 04:19:19;;;;;;;0.60;0.57;;;22.10;40.00;;;25.93;26.34;101172.91;5093241;28;20051;-16
2022/05/13 04:21:46;;;;;;;1.02;0.52;;;22.10;40.00;;;25.88;26.43;101163.41;5092862;28;20472;-17
2022/05/13 04:24:16;;;;;;;0.63;0.57;;;22.10;40.00;;;25.92;26.37;101174.72;5093636;28;20127;-17
2022/05/13 04:26:43;;;;;;;0.65;0.63;;;22.10;40.00;;;25.89;26.33;101166.94;5075474;28;20131;-17
2022/05/13 04:29:09;;;;;;;0.50;0.50;;;22.10;40.00;;;25.95;26.37;101176.31;5092061;28;20094;-17
2022/05/13 04:31:39;;;;;;;0.70;0.63;;;22.10;40.00;;;25.87;26.36;101161.69;5093565;28;20064;-17
2022/05/13 04:34:06;;;;;;;0.77;0.70;;;22.10;40.00;;;25.95;26.40;101176.31;5092978;28;20060;-17
2022/05/13 04:36:32;;;;;;;0.98;0.52;;;22.10;40.00;;;25.92;26.46;101164.00;5092868;28;20048;-17
2022/05/13 04:38:58;;;;;;;1.13;0.82;;;22.10;40.00;;;25.94;26.29;101166.56;5074468;28;20050;-16
2022/05/13 04:44:12;;;;;;;0.65;0.60;;;22.10;40.00;;;25.87;26.34;101153.66;5093154;28;20047;-16
2022/05/13 04:46:38;;;;;;;0.65;0.52;;;22.10;40.00;;;25.95;26.31;101168.28;5093072;28;20166;-16
2022/05/13 04:49:05;;;;;;;2.25;0.70;;;22.20;40.00;;;25.94;26.37;101175.44;5092845;28;20486;-17
2022/05/13 04:51:31;;;;;;;0.63;0.63;;;22.10;40.00;;;25.92;26.27;101179.25;5092686;28;20442;-16
2022/05/13 04:53:58;;;;;;;0.70;0.60;;;22.10;40.00;;;25.95;26.36;101182.56;5092643;28;20046;-17
2022/05/13 04:56:25;;;;;;;1.00;0.52;;;22.10;40.00;;;25.93;26.31;101188.97;5092688;28;20051;-16
2022/05/13 04:58:52;;;;;;;0.50;0.50;;;22.10;40.00;;;25.95;26.26;101195.97;5092587;28;20418;-16
2022/05/13 05:01:20;;;;;;;0.65;0.60;;;22.10;40.00;;;25.94;26.51;101201.41;5092475;28;20481;-16
2022/05/13 05:03:46;;;;;;;0.60;0.60;;;22.10;40.00;;;25.94;26.35;101204.09;5092863;28;20094;-16
2022/05/13 05:06:13;;;;;;;0.50;0.50;;;22.10;40.00;;;25.89;26.21;101205.31;5092482;28;20134;-16
2022/05/13 05:08:40;;;;;;;0.57;0.50;;;22.10;40.00;;;25.93;26.39;101207.72;5089017;28;20468;-16
2022/05/13 05:11:08;;;;;;;0.70;0.68;;;22.10;40.00;;;25.87;26.35;101193.00;5092703;28;20048;-16
2022/05/13 05:13:41;;;;;;;0.57;0.57;;;22.10;40.00;;;25.92;26.47;101204.19;5092452;28;20063;-16
2022/05/13 05:16:07;;;;;;;0.65;0.60;;;22.20;40.00;;;25.90;26.38;101206.16;5092104;28;20070;-17
2022/05/13 05:18:39;;;;;;;0.60;0.60;;;22.10;40.00;;;25.92;26.34;101212.25;5092288;28;20052;-16
2022/05/13 05:21:06;;;;;;;0.60;0.60;;;22.20;40.00;;;25.89;26.36;101213.34;5092220;28;20056;-16
2022/05/13 05:23:35;;;;;;;1.48;0.85;;;22.10;40.00;;;25.91;26.35;101221.25;5092441;28;20048;-16
2022/05/13 05:26:01;;;;;;;0.52;0.52;;;22.10;40.00;;;25.89;26.37;101224.06;5092707;28;20048;-17
2022/05/13 05:28:28;;;;;;;0.60;0.60;;;22.10;40.00;;;25.92;26.27;101225.63;5092263;28;20047;-15
2022/05/13 05:30:58;;;;;;;0.73;0.60;;;22.10;40.10;;;25.86;26.39;101212.69;5092530;28;20048;-16
2022/05/13 05:33:24;;;;;;;0.65;0.65;;;22.10;40.10;;;25.91;26.29;101213.22;5092516;28;20040;-16
2022/05/13 05:35:50;;;;;;;0.82;0.63;;;22.10;40.10;;;25.94;26.32;101218.31;5092044;28;20872;-16
2022/05/13 05:38:15;;;;;;;0.80;0.68;;;22.10;40.10;;;25.93;26.39;101226.47;5092123;28;20044;-16
2022/05/13 05:40:43;;;;;;;0.80;0.70;;;22.10;40.10;;;25.87;26.28;101222.47;5091644;28;20051;-16
2022/05/13 05:43:16;;;;;;;0.60;0.60;;;22.10;40.10;;;25.92;26.43;101227.47;5077467;28;20415;-17
2022/05/13 05:45:43;;;;;;;0.88;0.60;;;22.10;40.10;;;25.88;26.34;101210.78;5077466;28;20051;-16
2022/05/13 05:48:12;;;;;;;0.60;0.60;;;22.10;40.10;;;25.92;26.35;101224.78;5095556;28;20055;-16
2022/05/13 05:50:39;;;;;;;0.50;0.50;;;22.10;40.10;;;25.87;26.30;101214.41;5095685;28;20051;-16
2022/05/13 05:53:05;;;;;;;0.68;0.60;;;22.10;40.10;;;25.93;26.28;101224.66;5095464;28;20060;-16
2022/05/13 05:58:17;;;;;;;0.47;0.45;;;22.10;40.10;;;25.88;26.35;101232.22;5092225;28;20052;-16
2022/05/13 06:00:47;;;;;;;0.70;0.70;;;22.10;40.10;;;25.88;26.24;101233.06;5095345;28;20048;-16
2022/05/13 06:03:13;;;;;;;0.77;0.50;;;22.10;40.10;;;25.92;26.38;101224.78;5095411;28;20052;-16
2022/05/13 06:05:40;;;;;;;0.63;0.60;;;22.10;40.10;;;25.87;26.29;101222.47;5095720;28;20048;-16
2022/05/13 06:08:07;;;;;;;0.60;0.60;;;22.10;40.10;;;25.93;26.41;101223.78;5076889;28;20040;-16
2022/05/13 06:10:35;;;;;;;0.70;0.70;;;22.10;40.00;;;25.88;26.35;101216.13;5095368;28;20082;-16
2022/05/13 06:13:02;;;;;;;1.13;0.52;;;22.10;40.00;;;25.88;26.43;101206.25;5095254;28;20043;-16
2022/05/13 06:15:28;;;;;;;0.50;0.50;;;22.10;40.00;;;25.92;26.32;101225.63;5094671;28;20135;-17
2022/05/13 06:17:56;;;;;;;0.82;0.60;;;22.10;40.00;;;25.93;26.42;101221.13;5094904;28;20163;-16
2022/05/13 06:20:26;;;;;;;0.85;0.60;;;22.10;40.00;;;25.89;26.36;101204.44;5094870;28;20078;-18
2022/05/13 06:22:52;;;;;;;0.52;0.52;;;22.10;40.00;;;25.92;26.31;101203.34;5076562;28;20075;-17
2022/05/13 06:25:21;;;;;;;0.60;0.60;;;22.10;40.00;;;25.94;26.27;101204.94;5094811;28;20052;-17
2022/05/13 06:27:49;;;;;;;0.88;0.50;;;22.10;40.00;;;25.87;26.27;101199.19;5094849;28;20079;-17
2022/05/13 06:30:20;;;;;;;1.02;0.60;;;22.10;40.00;;;25.90;26.25;101198.13;5094615;28;20439;-17
2022/05/13 06:32:46;;;;;;;0.70;0.70;;;22.10;40.00;;;25.92;26.38;101201.53;5094878;28;20059;-17
2022/05/13 06:35:12;;;;;;;0.68;0.57;;;22.10;40.00;;;25.87;26.27;101196.50;5094651;28;20052;-17
2022/05/13 06:37:38;;;;;;;0.77;0.70;;;22.10;40.00;;;25.92;26.31;101201.53;5094591;28;20377;-17
2022/05/13 06:40:06;;;;;;;0.73;0.60;;;22.10;40.00;;;25.90;26.15;101200.78;5094607;28;20058;-17
2022/05/13 06:42:33;;;;;;;0.88;0.73;;;22.10;40.00;;;25.93;26.28;101205.91;5094441;28;20048;-17
2022/05/13 06:45:01;;;;;;;0.50;0.50;;;22.10;40.00;;;25.91;26.22;101205.19;5094803;28;20054;-17
2022/05/13 06:47:31;;;;;;;0.98;0.70;;;22.10;40.10;;;25.91;26.29;101218.59;5094367;28;20105;-17
2022/05/13 06:50:02;;;;;;;0.75;0.70;;;22.10;40.00;;;25.85;26.35;101192.25;5094523;28;20040;-17
2022/05/13 06:52:29;;;;;;;1.48;0.50;;;22.10;40.00;;;25.91;26.38;101210.53;5094149;28;20139;-17
2022/05/13 06:54:56;;;;;;;1.08;0.63;;;22.10;40.60;;;25.90;26.33;101214.19;5094797;28;20056;-17
2022/05/13 06:57:22;;;;;;;0.45;0.45;;;22.10;40.00;;;25.93;26.31;101226.47;5074494;28;20048;-15
2022/05/13 06:59:47;;;;;;;0.52;0.52;;;22.10;40.00;;;25.88;26.35;101216.97;5094092;28;20058;-15
2022/05/13 07:02:17;;;;;;;0.50;0.50;;;22.10;40.00;;;25.94;26.27;101223.69;5094276;28;20139;-16
2022/05/13 07:04:44;;;;;;;0.57;0.57;;;22.10;40.00;;;25.93;26.33;101215.75;5075214;28;20459;-16
2022/05/13 07:07:11;;;;;;;1.02;0.70;;;22.10;40.00;;;25.92;26.35;101222.09;5093852;28;20044;-17
2022/05/13 07:09:37;;;;;;;0.52;0.52;;;22.10;40.00;;;25.88;26.26;101197.38;5093948;28;20052;-15
2022/05/13 07:12:03;;;;;;;1.25;0.70;;;22.10;40.00;;;25.92;26.39;101201.53;5094346;28;20059;-17
2022/05/13 07:14:29;;;;;;;0.60;0.60;;;22.10;40.00;;;25.89;26.26;101202.63;5093882;28;20072;-16
2022/05/13 07:16:55;;;;;;;1.15;0.60;;;22.10;40.00;;;25.88;26.16;101208.94;5094349;28;20433;-16
2022/05/13 07:19:22;;;;;;;0.82;0.52;;;22.10;40.00;;;25.87;26.31;101214.41;5093813;28;20048;-16
2022/05/13 07:21:48;;;;;;;0.52;0.52;;;22.10;40.00;;;25.88;26.16;101206.25;5093797;28;20101;-17
2022/05/13 07:24:14;;;;;;;0.70;0.60;;;22.10;40.00;;;25.93;26.25;101229.16;5093973;28;20051;-17
2022/05/13 07:26:40;;;;;;;0.57;0.57;;;22.10;40.00;;;25.94;26.24;101234.41;5093874;28;20089;-17
2022/05/13 07:29:06;;;;;;;1.73;0.65;;;22.10;40.00;;;25.90;26.27;101232.94;5093569;28;20048;-17
2022/05/13 07:31:33;;;;;;;0.50;0.50;;;22.10;40.00;;;25.92;26.33;101233.66;5093782;28;20036;-17
2022/05/13 07:33:59;;;;;;;0.77;0.65;;;22.10;39.90;;;25.87;26.21;101222.47;5093856;28;20093;-17
2022/05/13 07:36:25;;;;;;;0.98;0.70;;;22.10;40.50;;;25.96;26.21;101242.34;5093626;28;20044;-16
2022/05/13 07:41:35;;;;;;;1.25;0.77;;;22.10;39.90;;;25.98;26.28;101237.75;5091806;28;20040;-17
2022/05/13 07:44:01;;;;;;;0.90;0.57;;;22.10;39.80;;;25.97;26.21;101228.84;5093144;28;20388;-16
2022/05/13 07:46:26;;;;;;;0.57;0.57;;;22.10;39.80;;;26.00;26.09;101239.31;5093409;28;20407;-17
2022/05/13 07:48:52;;;;;;;0.80;0.70;;;22.10;39.80;;;25.98;26.17;101238.59;5093422;28;20484;-17
2022/05/13 07:51:18;;;;;;;0.55;0.50;;;22.10;39.80;;;25.94;26.29;101230.88;5091786;28;20134;-17
2022/05/13 07:53:44;;;;;;;0.50;0.50;;;22.10;39.80;;;26.01;26.23;101241.03;5091106;28;20485;-19
2022/05/13 07:56:11;;;;;;;0.55;0.55;;;22.10;39.80;;;25.92;26.12;101235.50;5091121;28;20044;-21
2022/05/13 07:58:36;;;;;;;0.55;0.55;;;22.10;39.80;;;26.01;26.15;101242.84;5058161;28;20076;-18
2022/05/13 08:01:03;;;;;;;0.60;0.60;;;22.10;39.80;;;26.02;26.08;101244.56;5092569;28;20055;-17
2022/05/13 08:03:30;;;;;;;0.60;0.55;;;22.10;39.70;;;26.01;26.18;101248.19;5092306;28;20484;-17
2022/05/13 08:06:02;;;;;;;2.53;0.60;;;22.10;39.70;;;25.98;26.18;101241.28;5091867;28;20048;-20
2022/05/13 08:08:35;;;;;;;0.65;0.60;;;22.10;39.80;;;26.05;26.10;101249.69;5093489;28;20136;-17
2022/05/13 08:11:05;;;;;;;0.60;0.60;;;22.20;39.80;;;26.00;26.14;101235.78;5093737;28;20079;-17
2022/05/13 08:13:33;;;;;;;0.80;0.80;;;22.20;39.70;;;26.09;26.25;101259.19;5093118;28;20052;-17
2022/05/13 08:16:04;;;;;;;1.10;0.80;;;22.20;39.70;;;26.03;26.17;101249.81;5074870;28;20404;-17
2022/05/13 08:18:31;;;;;;;0.60;0.60;;;22.20;39.90;;;26.10;26.15;101249.34;5093113;28;20043;-17
2022/05/13 08:20:57;;;;;;;0.70;0.70;;;22.20;39.80;;;26.11;26.33;101253.72;5092889;28;20044;-17
2022/05/13 08:23:23;;;;;;;1.65;0.60;;;22.20;39.90;;;26.09;26.28;101255.66;5092922;28;20434;-18
2022/05/13 08:25:49;;;;;;;0.60;0.60;;;22.20;40.40;;;26.09;26.32;101256.50;5092955;28;20055;-16
2022/05/13 08:28:16;;;;;;;0.88;0.65;;;22.20;40.10;;;26.09;26.40;101258.34;5092630;28;20510;-17
2022/05/13 08:30:43;;;;;;;1.83;0.70;;;22.30;40.30;;;26.04;26.49;101264.94;5092797;28;20048;-16
2022/05/13 08:33:09;;;;;;;2.35;0.90;;;22.30;40.40;;;26.04;26.58;101270.28;5092808;28;20043;-17
2022/05/13 08:35:46;;;;;;;1.35;0.70;;;22.30;40.30;;;25.98;26.42;101267.22;5092655;28;20051;-18
2022/05/13 08:38:17;;;;;;;1.15;0.60;;;22.30;40.40;;;26.07;26.65;101256.63;5092490;28;20051;-18
2022/05/13 08:40:58;;;;;;;1.40;0.77;;;22.30;40.20;;;26.18;26.44;101271.03;5092854;28;20377;-16
2022/05/13 08:43:34;;;;;;;2.45;0.52;;;22.40;40.20;;;26.20;26.37;101258.38;5092809;28;20391;-16
2022/05/13 08:46:21;;;;;;;1.13;0.70;;;22.40;40.30;;;26.30;26.46;101275.44;5092707;28;20044;-18
2022/05/13 08:49:24;;;;;;;2.88;0.73;;;22.50;40.20;;;26.32;26.50;101257.38;5092514;28;20060;-16
2022/05/13 08:55:08;;;;;;;4.57;0.80;;;22.70;40.00;;;26.43;26.44;101273.50;5077131;28;20086;-15
2022/05/13 08:57:41;;;;;;;1.73;0.60;;;22.80;40.00;;;26.51;26.40;101274.69;5073561;28;20128;-14
2022/05/13 09:00:13;;;;;;;1.08;0.65;;;22.80;39.90;;;26.50;26.22;101278.38;5091095;28;20074;-13
2022/05/13 09:03:04;;;;;;;3.35;0.90;;;22.80;40.40;;;-147.20;100.00;58430.41;5073944;28;20491;-12
2022/05/13 09:05:47;;;;;;;3.40;0.77;;;22.80;39.90;;;-147.20;25.35;58430.41;5074264;28;20044;-12
2022/05/13 09:08:13;;;;;;;2.25;0.80;;;22.90;39.70;;;26.74;26.06;101278.28;5074313;28;20078;-12
2022/05/13 09:11:08;;;;;;;1.73;0.60;;;22.90;39.50;;;-147.20;100.00;58430.41;5091730;28;20044;-16
2022/05/13 09:14:05;;;;;;;2.58;0.93;;;23.00;39.60;;;-147.20;100.00;58430.41;5073961;28;20048;-19
2022/05/13 09:17:04;;;;;;;1.00;0.90;;;23.00;39.50;;;-147.20;100.00;58430.41;5076061;28;20048;-17
2022/05/13 09:19:40;;;;;;;1.20;0.70;;;23.10;39.40;;;-147.20;100.00;58430.41;5095828;28;20076;-16
2022/05/13 09:22:10;;;;;;;4.00;0.73;;;23.00;39.30;;;-147.20;100.00;58430.41;5077244;28;20411;-16
2022/05/13 09:24:36;;;;;;;4.22;1.00;;;23.10;39.30;;;-147.20;100.00;58430.41;5095748;28;20506;-16
2022/05/13 09:27:02;;;;;;;1.05;0.70;;;23.10;39.20;;;-147.20;100.00;58430.41;5095632;28;20052;-18
2022/05/13 09:29:45;;;;;;;2.90;0.75;;;23.20;39.20;;;-147.20;100.00;58430.41;5094151;28;20048;-16
2022/05/13 09:32:27;;;;;;;1.17;0.60;;;23.20;39.10;;;26.74;26.06;101278.28;5095601;28;20077;-16
2022/05/13 09:35:10;;;;;;;1.52;0.60;;;23.20;39.00;;;27.02;25.61;101276.91;5095589;28;20052;-16
2022/05/13 09:37:43;;;;;;;7.35;1.00;;;23.20;38.90;;;26.98;25.49;101262.00;5095394;28;20056;-18
2022/05/13 09:40:17;;;;;;;2.50;0.80;;;23.20;38.80;;;27.07;25.55;101280.06;5060362;28;20077;-16
2022/05/13 09:42:53;;;;;;;2.50;0.80;;;23.30;38.80;;;27.05;25.50;101268.59;5095717;28;20511;-17
2022/05/13 09:45:33;;;;;;;2.35;0.80;;;23.30;38.70;;;27.09;25.42;101283.47;5095416;28;20059;-18
2022/05/13 09:48:16;;;;;;;2.30;0.75;;;23.30;38.60;;;27.05;25.49;101268.59;5093842;28;20043;-16
2022/05/13 09:50:55;;;;;;;1.15;0.90;;;23.30;38.50;;;27.12;25.33;101280.53;5095340;28;20048;-16
2022/05/13 09:53:21;;;;;;;0.95;0.80;;;23.40;38.60;;;27.14;25.37;101285.78;5094578;28;20100;-16
2022/05/13 09:55:53;;;;;;;1.67;0.68;;;23.30;38.60;;;27.11;25.29;101289.53;5094113;28;20048;-18
2022/05/13 09:58:37;;;;;;;1.70;0.70;;;23.30;38.60;;;27.14;25.16;101283.09;5074786;28;20054;-19
2022/05/13 10:01:07;;;;;;;0.70;0.55;;;23.40;38.50;;;27.17;25.33;101283.69;5058355;28;20488;-20
2022/05/13 10:03:37;;;;;;;1.02;0.90;;;23.40;38.50;;;27.17;25.14;101277.47;5093181;28;20051;-18
2022/05/13 10:06:23;;;;;;;1.70;0.70;;;23.40;38.40;;;27.17;25.33;101282.84;5076271;28;20077;-18
2022/05/13 10:13:57;;;;;;;2.45;0.70;;;23.40;38.40;;;27.16;25.19;101282.00;5093831;28;20040;-18
2022/05/13 10:14:41;;;;;;;0.80;0.60;;;23.30;38.50;;;27.13;25.35;101267.94;5094938;28;20044;-16
2022/05/13 10:17:19;;;;;;;1.42;0.80;;;23.30;38.60;;;27.08;25.26;101262.09;5094559;28;20052;-16
2022/05/13 10:19:54;;;;;;;1.88;0.80;;;23.30;38.60;;;27.09;25.21;101270.03;5076696;28;20052;-16
2022/05/13 10:22:35;;;;;;;1.27;0.75;;;23.30;38.60;;;27.13;25.26;101268.81;5075138;28;20055;-17
2022/05/13 10:25:10;;;;;;;2.05;0.52;;;23.30;38.50;;;27.08;25.15;101267.47;5094938;28;20048;-16
2022/05/13 10:27:45;;;;;;;3.60;0.60;;;23.20;38.50;;;27.10;25.24;101281.66;5093520;28;20048;-17
2022/05/13 10:30:39;;;;;;;0.77;0.70;;;23.20;38.70;;;27.01;25.27;101301.16;5092809;28;20496;-17
2022/05/13 10:33:19;;;;;;;1.02;0.60;;;23.10;38.80;;;26.96;25.11;101328.38;5076567;28;20419;-17
2022/05/13 10:35:56;;;;;;;2.10;0.80;;;23.00;38.80;;;26.96;25.46;101331.06;5076270;28;20079;-17
2022/05/13 10:38:46;;;;;;;0.93;0.65;;;23.00;38.90;;;26.93;25.53;101333.97;5076331;28;20484;-17
2022/05/13 10:41:43;;;;;;;0.93;0.70;;;23.00;38.90;;;26.97;25.30;101346.19;5057089;28;20086;-17
2022/05/13 10:44:23;;;;;;;1.45;0.70;;;23.00;39.50;;;26.95;25.42;101334.72;5090152;28;20047;-16
2022/05/13 10:46:57;;;;;;;1.30;0.80;;;23.00;38.90;;;26.96;25.39;101333.75;5094560;28;20055;-17